createdAt,value
2017-02-27T00:00:05.971Z,927.68
2017-02-27T00:00:20.545Z,927.67
2017-02-27T00:00:35.121Z,927.7
2017-02-27T00:00:49.691Z,927.7
2017-02-27T00:01:04.233Z,927.71
2017-02-27T00:01:18.816Z,927.72
2017-02-27T00:01:33.383Z,927.7
2017-02-27T00:01:47.935Z,927.73
2017-02-27T00:02:02.473Z,927.73
2017-02-27T00:02:17.050Z,927.72
2017-02-27T00:02:31.590Z,927.72
2017-02-27T00:02:47.473Z,927.74
2017-02-27T00:03:02.037Z,927.75
2017-02-27T00:03:16.836Z,927.78
2017-02-27T00:03:31.395Z,927.79
2017-02-27T00:03:45.988Z,927.78
2017-02-27T00:04:00.550Z,927.78
2017-02-27T00:04:15.139Z,927.76
2017-02-27T00:04:29.705Z,927.79
2017-02-27T00:04:44.238Z,927.8
2017-02-27T00:04:58.840Z,927.79
2017-02-27T00:05:13.418Z,927.83
2017-02-27T00:05:28.047Z,927.79
2017-02-27T00:05:42.642Z,927.81
2017-02-27T00:05:57.240Z,927.78
2017-02-27T00:06:11.798Z,927.82
2017-02-27T00:06:26.342Z,927.77
2017-02-27T00:06:40.880Z,927.76
2017-02-27T00:06:55.462Z,927.75
2017-02-27T00:07:10.083Z,927.81
2017-02-27T00:07:24.670Z,927.77
2017-02-27T00:07:39.246Z,927.8
2017-02-27T00:07:53.825Z,927.82
2017-02-27T00:08:08.384Z,927.77
2017-02-27T00:08:23.021Z,927.74
2017-02-27T00:08:37.613Z,927.76
2017-02-27T00:08:52.162Z,927.79
2017-02-27T00:09:06.792Z,927.77
2017-02-27T00:09:21.336Z,927.75
2017-02-27T00:09:35.884Z,927.75
2017-02-27T00:09:50.443Z,927.77
2017-02-27T00:10:05.011Z,927.74
2017-02-27T00:10:19.597Z,927.75
2017-02-27T00:10:34.174Z,927.75
2017-02-27T00:10:48.825Z,927.78
2017-02-27T00:11:03.399Z,927.78
2017-02-27T00:11:17.954Z,927.77
2017-02-27T00:11:32.525Z,927.76
2017-02-27T00:11:47.150Z,927.81
2017-02-27T00:12:01.772Z,927.8
2017-02-27T00:12:16.351Z,927.79
2017-02-27T00:12:30.887Z,927.76
2017-02-27T00:12:45.500Z,927.8
2017-02-27T00:13:00.093Z,927.77
2017-02-27T00:13:14.689Z,927.83
2017-02-27T00:13:29.249Z,927.81
2017-02-27T00:13:43.803Z,927.82
2017-02-27T00:13:58.334Z,927.81
2017-02-27T00:14:12.893Z,927.81
2017-02-27T00:14:27.492Z,927.84
2017-02-27T00:14:42.051Z,927.85
2017-02-27T00:14:56.642Z,927.84
2017-02-27T00:15:11.201Z,927.84
2017-02-27T00:15:25.815Z,927.83
2017-02-27T00:15:40.319Z,927.84
2017-02-27T00:15:54.901Z,927.89
2017-02-27T00:16:09.466Z,927.87
2017-02-27T00:16:23.981Z,927.88
2017-02-27T00:16:38.532Z,927.87
2017-02-27T00:16:53.202Z,927.88
2017-02-27T00:17:07.805Z,927.82
2017-02-27T00:17:22.396Z,927.88
2017-02-27T00:17:36.939Z,927.87
2017-02-27T00:17:51.554Z,927.84
2017-02-27T00:18:06.149Z,927.87
2017-02-27T00:18:20.907Z,927.84
2017-02-27T00:18:35.517Z,927.83
2017-02-27T00:18:50.139Z,927.84
2017-02-27T00:19:04.735Z,927.85
2017-02-27T00:19:19.291Z,927.85
2017-02-27T00:19:33.892Z,927.86
2017-02-27T00:19:48.537Z,927.9
2017-02-27T00:20:03.195Z,927.88
2017-02-27T00:20:17.731Z,927.89
2017-02-27T00:20:32.284Z,927.89
2017-02-27T00:20:46.806Z,927.86
2017-02-27T00:21:01.347Z,927.87
2017-02-27T00:21:15.939Z,927.88
2017-02-27T00:21:30.537Z,927.91
2017-02-27T00:21:45.105Z,927.9
2017-02-27T00:21:59.730Z,927.9
2017-02-27T00:22:14.252Z,927.9
2017-02-27T00:22:28.854Z,927.91
2017-02-27T00:22:43.438Z,927.92
2017-02-27T00:22:57.994Z,927.91
2017-02-27T00:23:12.535Z,927.91
2017-02-27T00:23:27.187Z,927.93
2017-02-27T00:23:41.747Z,927.93
2017-02-27T00:23:56.295Z,927.94
2017-02-27T00:24:10.883Z,927.96
2017-02-27T00:24:25.460Z,927.96
2017-02-27T00:24:40.018Z,927.95
2017-02-27T00:24:54.571Z,927.95
2017-02-27T00:25:09.139Z,927.97
2017-02-27T00:25:23.738Z,927.97
2017-02-27T00:25:38.270Z,927.98
2017-02-27T00:25:52.826Z,927.97
2017-02-27T00:26:07.434Z,927.98
2017-02-27T00:26:22.002Z,927.96
2017-02-27T00:26:36.542Z,927.97
2017-02-27T00:26:51.121Z,927.97
2017-02-27T00:27:05.749Z,927.98
2017-02-27T00:27:20.302Z,928
2017-02-27T00:27:34.809Z,928
2017-02-27T00:27:49.392Z,928
2017-02-27T00:28:03.996Z,928.02
2017-02-27T00:28:18.577Z,928
2017-02-27T00:28:33.142Z,927.99
2017-02-27T00:28:47.703Z,927.99
2017-02-27T00:29:02.314Z,927.98
2017-02-27T00:29:16.896Z,927.99
2017-02-27T00:29:31.476Z,927.98
2017-02-27T00:29:46.136Z,928.01
2017-02-27T00:30:00.730Z,927.97
2017-02-27T00:30:15.314Z,927.97
2017-02-27T00:30:29.866Z,927.98
2017-02-27T00:30:44.438Z,927.95
2017-02-27T00:30:59.034Z,927.97
2017-02-27T00:31:13.573Z,927.93
2017-02-27T00:31:28.129Z,927.94
2017-02-27T00:31:42.647Z,927.94
2017-02-27T00:31:57.249Z,927.95
2017-02-27T00:32:11.843Z,927.94
2017-02-27T00:32:26.448Z,927.95
2017-02-27T00:32:41.033Z,927.89
2017-02-27T00:32:55.649Z,927.91
2017-02-27T00:33:10.221Z,927.93
2017-02-27T00:33:24.940Z,927.9
2017-02-27T00:33:39.497Z,927.91
2017-02-27T00:33:54.098Z,927.95
2017-02-27T00:34:08.735Z,927.93
2017-02-27T00:34:23.323Z,927.94
2017-02-27T00:34:37.847Z,927.97
2017-02-27T00:34:52.384Z,927.97
2017-02-27T00:35:07.004Z,927.94
2017-02-27T00:35:21.568Z,927.95
2017-02-27T00:35:36.136Z,927.95
2017-02-27T00:35:50.750Z,927.94
2017-02-27T00:36:05.261Z,927.95
2017-02-27T00:36:19.803Z,927.98
2017-02-27T00:36:34.338Z,927.96
2017-02-27T00:36:48.946Z,927.96
2017-02-27T00:37:03.549Z,927.95
2017-02-27T00:37:18.100Z,927.93
2017-02-27T00:37:32.698Z,927.97
2017-02-27T00:37:47.256Z,927.94
2017-02-27T00:38:01.815Z,927.96
2017-02-27T00:38:16.394Z,927.93
2017-02-27T00:38:30.973Z,927.95
2017-02-27T00:38:45.589Z,927.94
2017-02-27T00:39:00.217Z,927.96
2017-02-27T00:39:14.850Z,927.94
2017-02-27T00:39:29.395Z,927.92
2017-02-27T00:39:43.948Z,927.95
2017-02-27T00:39:58.532Z,927.94
2017-02-27T00:40:13.074Z,927.92
2017-02-27T00:40:27.652Z,927.88
2017-02-27T00:40:42.234Z,927.9
2017-02-27T00:40:56.834Z,927.91
2017-02-27T00:41:11.457Z,927.91
2017-02-27T00:41:26.021Z,927.91
2017-02-27T00:41:40.588Z,927.93
2017-02-27T00:41:55.191Z,927.92
2017-02-27T00:42:09.741Z,927.94
2017-02-27T00:42:24.348Z,927.91
2017-02-27T00:42:38.951Z,927.92
2017-02-27T00:42:53.556Z,927.92
2017-02-27T00:43:08.150Z,927.89
2017-02-27T00:43:22.734Z,927.94
2017-02-27T00:43:37.423Z,927.89
2017-02-27T00:43:51.945Z,927.93
2017-02-27T00:44:06.580Z,927.95
2017-02-27T00:44:21.249Z,927.9
2017-02-27T00:44:35.766Z,927.91
2017-02-27T00:44:50.301Z,927.88
2017-02-27T00:45:04.914Z,927.85
2017-02-27T00:45:19.540Z,927.92
2017-02-27T00:45:34.110Z,927.92
2017-02-27T00:45:48.716Z,927.88
2017-02-27T00:46:03.277Z,927.87
2017-02-27T00:46:17.879Z,927.88
2017-02-27T00:46:32.645Z,927.91
2017-02-27T00:46:47.225Z,927.87
2017-02-27T00:47:01.785Z,927.87
2017-02-27T00:47:16.318Z,927.88
2017-02-27T00:47:30.901Z,927.86
2017-02-27T00:47:45.547Z,927.88
2017-02-27T00:48:00.120Z,927.84
2017-02-27T00:48:14.682Z,927.84
2017-02-27T00:48:29.285Z,927.83
2017-02-27T00:48:44.026Z,927.79
2017-02-27T00:48:58.646Z,927.81
2017-02-27T00:49:13.210Z,927.83
2017-02-27T00:49:27.777Z,927.81
2017-02-27T00:49:42.371Z,927.78
2017-02-27T00:49:57.017Z,927.78
2017-02-27T00:50:11.638Z,927.76
2017-02-27T00:50:26.191Z,927.81
2017-02-27T00:50:40.739Z,927.76
2017-02-27T00:50:55.340Z,927.76
2017-02-27T00:51:09.903Z,927.77
2017-02-27T00:51:24.510Z,927.77
2017-02-27T00:51:39.092Z,927.78
2017-02-27T00:51:53.731Z,927.78
2017-02-27T00:52:08.281Z,927.76
2017-02-27T00:52:22.825Z,927.74
2017-02-27T00:52:37.367Z,927.77
2017-02-27T00:52:51.990Z,927.72
2017-02-27T00:53:06.567Z,927.76
2017-02-27T00:53:21.167Z,927.72
2017-02-27T00:53:35.836Z,927.75
2017-02-27T00:53:50.404Z,927.74
2017-02-27T00:54:05.007Z,927.74
2017-02-27T00:54:19.547Z,927.74
2017-02-27T00:54:34.187Z,927.75
2017-02-27T00:54:48.768Z,927.73
2017-02-27T00:55:03.309Z,927.68
2017-02-27T00:55:17.955Z,927.71
2017-02-27T00:55:32.573Z,927.72
2017-02-27T00:55:47.145Z,927.76
2017-02-27T00:56:01.702Z,927.74
2017-02-27T00:56:16.288Z,927.73
2017-02-27T00:56:30.821Z,927.74
2017-02-27T00:56:45.341Z,927.73
2017-02-27T00:56:59.928Z,927.75
2017-02-27T00:57:14.488Z,927.71
2017-02-27T00:57:29.136Z,927.7
2017-02-27T00:57:43.719Z,927.71
2017-02-27T00:57:58.255Z,927.72
2017-02-27T00:58:12.809Z,927.75
2017-02-27T00:58:27.385Z,927.74
2017-02-27T00:58:41.930Z,927.76
2017-02-27T00:58:56.500Z,927.73
2017-02-27T00:59:11.108Z,927.74
2017-02-27T00:59:25.657Z,927.7
2017-02-27T00:59:40.231Z,927.72
2017-02-27T00:59:54.805Z,927.71
2017-02-27T01:00:09.437Z,927.67
2017-02-27T01:00:24.056Z,927.72
2017-02-27T01:00:38.631Z,927.73
2017-02-27T01:00:53.191Z,927.7
2017-02-27T01:01:07.753Z,927.73
2017-02-27T01:01:22.365Z,927.72
2017-02-27T01:01:36.924Z,927.74
2017-02-27T01:01:51.492Z,927.69
2017-02-27T01:02:06.094Z,927.74
2017-02-27T01:02:20.670Z,927.72
2017-02-27T01:02:35.289Z,927.69
2017-02-27T01:02:49.867Z,927.75
2017-02-27T01:03:04.442Z,927.73
2017-02-27T01:03:19.057Z,927.74
2017-02-27T01:03:33.644Z,927.74
2017-02-27T01:03:48.388Z,927.74
2017-02-27T01:04:02.876Z,927.73
2017-02-27T01:04:17.425Z,927.74
2017-02-27T01:04:32.021Z,927.75
2017-02-27T01:04:46.628Z,927.71
2017-02-27T01:05:01.249Z,927.74
2017-02-27T01:05:15.812Z,927.76
2017-02-27T01:05:30.422Z,927.75
2017-02-27T01:05:44.932Z,927.74
2017-02-27T01:05:59.488Z,927.72
2017-02-27T01:06:14.031Z,927.76
2017-02-27T01:06:28.594Z,927.74
2017-02-27T01:06:43.156Z,927.74
2017-02-27T01:06:57.722Z,927.75
2017-02-27T01:07:12.306Z,927.77
2017-02-27T01:07:26.879Z,927.76
2017-02-27T01:07:41.463Z,927.76
2017-02-27T01:07:56.021Z,927.75
2017-02-27T01:08:10.635Z,927.75
2017-02-27T01:08:25.242Z,927.76
2017-02-27T01:08:39.803Z,927.76
2017-02-27T01:08:54.436Z,927.74
2017-02-27T01:09:08.978Z,927.76
2017-02-27T01:09:23.596Z,927.73
2017-02-27T01:09:38.191Z,927.76
2017-02-27T01:09:52.766Z,927.79
2017-02-27T01:10:07.320Z,927.76
2017-02-27T01:10:21.895Z,927.75
2017-02-27T01:10:36.464Z,927.75
2017-02-27T01:10:51.066Z,927.75
2017-02-27T01:11:05.624Z,927.75
2017-02-27T01:11:20.163Z,927.74
2017-02-27T01:11:34.743Z,927.72
2017-02-27T01:11:49.414Z,927.75
2017-02-27T01:12:04.030Z,927.73
2017-02-27T01:12:18.663Z,927.76
2017-02-27T01:12:33.166Z,927.76
2017-02-27T01:12:47.773Z,927.73
2017-02-27T01:13:02.377Z,927.76
2017-02-27T01:13:17.018Z,927.75
2017-02-27T01:13:31.546Z,927.74
2017-02-27T01:13:46.125Z,927.75
2017-02-27T01:14:00.732Z,927.75
2017-02-27T01:14:15.341Z,927.74
2017-02-27T01:14:29.913Z,927.76
2017-02-27T01:14:44.493Z,927.75
2017-02-27T01:14:59.074Z,927.77
2017-02-27T01:15:13.816Z,927.73
2017-02-27T01:15:28.420Z,927.8
2017-02-27T01:15:43.005Z,927.76
2017-02-27T01:15:57.559Z,927.77
2017-02-27T01:16:12.124Z,927.77
2017-02-27T01:16:26.754Z,927.75
2017-02-27T01:16:41.327Z,927.74
2017-02-27T01:16:55.844Z,927.78
2017-02-27T01:17:10.332Z,927.78
2017-02-27T01:17:24.890Z,927.78
2017-02-27T01:17:39.432Z,927.76
2017-02-27T01:17:54.020Z,927.77
2017-02-27T01:18:08.570Z,927.79
2017-02-27T01:18:23.201Z,927.81
2017-02-27T01:18:37.740Z,927.82
2017-02-27T01:18:52.483Z,927.8
2017-02-27T01:19:07.065Z,927.78
2017-02-27T01:19:21.630Z,927.8
2017-02-27T01:19:36.217Z,927.79
2017-02-27T01:19:50.797Z,927.8
2017-02-27T01:20:05.365Z,927.77
2017-02-27T01:20:19.948Z,927.78
2017-02-27T01:20:34.532Z,927.78
2017-02-27T01:20:49.107Z,927.77
2017-02-27T01:21:03.677Z,927.78
2017-02-27T01:21:18.287Z,927.79
2017-02-27T01:21:32.893Z,927.79
2017-02-27T01:21:47.458Z,927.78
2017-02-27T01:22:02.001Z,927.76
2017-02-27T01:22:16.617Z,927.77
2017-02-27T01:22:31.177Z,927.77
2017-02-27T01:22:46.008Z,927.78
2017-02-27T01:23:00.572Z,927.74
2017-02-27T01:23:15.144Z,927.77
2017-02-27T01:23:29.783Z,927.75
2017-02-27T01:23:44.418Z,927.76
2017-02-27T01:23:58.963Z,927.76
2017-02-27T01:24:13.553Z,927.76
2017-02-27T01:24:28.179Z,927.76
2017-02-27T01:24:42.815Z,927.77
2017-02-27T01:24:57.376Z,927.74
2017-02-27T01:25:11.928Z,927.76
2017-02-27T01:25:26.552Z,927.76
2017-02-27T01:25:41.401Z,927.79
2017-02-27T01:25:56.180Z,927.72
2017-02-27T01:26:10.691Z,927.75
2017-02-27T01:26:25.246Z,927.72
2017-02-27T01:26:39.875Z,927.71
2017-02-27T01:26:54.498Z,927.71
2017-02-27T01:27:09.088Z,927.75
2017-02-27T01:27:23.609Z,927.72
2017-02-27T01:27:38.206Z,927.7
2017-02-27T01:27:52.748Z,927.73
2017-02-27T01:28:07.331Z,927.71
2017-02-27T01:28:21.957Z,927.74
2017-02-27T01:28:36.537Z,927.72
2017-02-27T01:28:51.119Z,927.74
2017-02-27T01:29:05.717Z,927.74
2017-02-27T01:29:20.257Z,927.74
2017-02-27T01:29:34.865Z,927.71
2017-02-27T01:29:49.419Z,927.69
2017-02-27T01:30:04.475Z,927.73
2017-02-27T01:30:19.093Z,927.69
2017-02-27T01:30:33.646Z,927.71
2017-02-27T01:30:48.193Z,927.71
2017-02-27T01:31:02.746Z,927.71
2017-02-27T01:31:17.347Z,927.71
2017-02-27T01:31:31.890Z,927.7
2017-02-27T01:31:46.445Z,927.66
2017-02-27T01:32:01.028Z,927.71
2017-02-27T01:32:15.638Z,927.66
2017-02-27T01:32:30.269Z,927.69
2017-02-27T01:32:44.909Z,927.67
2017-02-27T01:32:59.471Z,927.66
2017-02-27T01:33:14.066Z,927.64
2017-02-27T01:33:28.909Z,927.66
2017-02-27T01:33:43.466Z,927.67
2017-02-27T01:33:58.281Z,927.63
2017-02-27T01:34:12.855Z,927.66
2017-02-27T01:34:27.406Z,927.61
2017-02-27T01:34:41.967Z,927.6
2017-02-27T01:52:43.118Z,927.46
2017-02-27T01:52:57.670Z,927.51
2017-02-27T01:53:12.337Z,927.46
2017-02-27T01:53:26.994Z,927.49
2017-02-27T01:53:41.517Z,927.47
2017-02-27T01:53:56.089Z,927.45
2017-02-27T01:54:10.681Z,927.47
2017-02-27T01:54:25.248Z,927.49
2017-02-27T01:54:39.766Z,927.48
2017-02-27T01:54:54.303Z,927.46
2017-02-27T01:55:08.921Z,927.49
2017-02-27T01:55:23.508Z,927.47
2017-02-27T01:55:38.075Z,927.44
2017-02-27T01:55:52.868Z,927.44
2017-02-27T01:56:07.461Z,927.44
2017-02-27T01:56:22.061Z,927.45
2017-02-27T01:56:36.640Z,927.45
2017-02-27T01:56:51.241Z,927.46
2017-02-27T01:57:05.779Z,927.47
2017-02-27T01:57:20.347Z,927.43
2017-02-27T01:57:34.970Z,927.45
2017-02-27T01:57:49.510Z,927.46
2017-02-27T01:58:04.113Z,927.52
2017-02-27T01:58:18.676Z,927.47
2017-02-27T01:58:33.284Z,927.51
2017-02-27T01:58:47.883Z,927.56
2017-02-27T01:59:02.459Z,927.51
2017-02-27T01:59:17.044Z,927.54
2017-02-27T01:59:31.618Z,927.53
2017-02-27T01:59:46.437Z,927.56
2017-02-27T02:00:00.967Z,927.6
2017-02-27T02:00:15.579Z,927.55
2017-02-27T02:00:30.363Z,927.57
2017-02-27T02:00:44.985Z,927.58
2017-02-27T02:00:59.617Z,927.57
2017-02-27T02:01:14.255Z,927.56
2017-02-27T02:01:29.056Z,927.57
2017-02-27T02:01:43.660Z,927.61
2017-02-27T02:01:58.262Z,927.6
2017-02-27T02:02:12.907Z,927.58
2017-02-27T02:02:27.455Z,927.6
2017-02-27T02:02:42.043Z,927.57
2017-02-27T02:02:56.722Z,927.6
2017-02-27T02:03:11.315Z,927.59
2017-02-27T02:03:25.933Z,927.63
2017-02-27T02:03:40.477Z,927.61
2017-02-27T02:03:55.128Z,927.6
2017-02-27T02:04:09.707Z,927.61
2017-02-27T02:04:24.313Z,927.61
2017-02-27T02:04:38.824Z,927.62
2017-02-27T02:04:53.447Z,927.63
2017-02-27T02:05:08.028Z,927.57
2017-02-27T02:05:22.634Z,927.58
2017-02-27T02:05:37.259Z,927.63
2017-02-27T02:05:51.800Z,927.64
2017-02-27T02:06:06.696Z,927.57
2017-02-27T02:06:21.257Z,927.62
2017-02-27T02:06:35.894Z,927.59
2017-02-27T02:06:50.458Z,927.61
2017-02-27T02:07:05.014Z,927.65
2017-02-27T02:07:19.823Z,927.61
2017-02-27T02:07:34.394Z,927.62
2017-02-27T02:07:48.969Z,927.63
2017-02-27T02:08:03.578Z,927.63
2017-02-27T02:08:18.157Z,927.65
2017-02-27T02:08:32.752Z,927.63
2017-02-27T02:08:47.283Z,927.62
2017-02-27T02:09:01.863Z,927.64
2017-02-27T02:09:16.441Z,927.6
2017-02-27T02:09:31.121Z,927.65
2017-02-27T02:09:45.731Z,927.6
2017-02-27T02:10:00.289Z,927.64
2017-02-27T02:10:14.845Z,927.62
2017-02-27T02:10:29.465Z,927.67
2017-02-27T02:10:44.081Z,927.61
2017-02-27T02:10:59.444Z,927.63
2017-02-27T02:11:14.055Z,927.64
2017-02-27T02:11:28.706Z,927.61
2017-02-27T02:11:43.309Z,927.62
2017-02-27T02:11:57.912Z,927.66
2017-02-27T02:12:12.500Z,927.62
2017-02-27T02:12:27.082Z,927.61
2017-02-27T02:12:41.677Z,927.64
2017-02-27T02:12:56.234Z,927.64
2017-02-27T02:13:10.874Z,927.65
2017-02-27T02:13:25.461Z,927.61
2017-02-27T02:13:40.052Z,927.65
2017-02-27T02:13:54.627Z,927.64
2017-02-27T02:14:09.183Z,927.62
2017-02-27T02:14:23.754Z,927.62
2017-02-27T02:14:38.485Z,927.65
2017-02-27T02:14:53.067Z,927.63
2017-02-27T02:15:07.653Z,927.63
2017-02-27T02:15:22.234Z,927.67
2017-02-27T02:15:36.820Z,927.65
2017-02-27T02:15:51.387Z,927.66
2017-02-27T02:16:05.993Z,927.65
2017-02-27T02:16:20.604Z,927.68
2017-02-27T02:16:35.172Z,927.69
2017-02-27T02:16:49.847Z,927.65
2017-02-27T02:17:04.423Z,927.69
2017-02-27T02:17:18.987Z,927.66
2017-02-27T02:17:33.602Z,927.67
2017-02-27T02:17:49.469Z,927.68
2017-02-27T02:18:04.096Z,927.67
2017-02-27T02:18:18.661Z,927.66
2017-02-27T02:18:33.255Z,927.65
2017-02-27T02:18:47.879Z,927.67
2017-02-27T02:19:02.435Z,927.66
2017-02-27T02:19:17.012Z,927.67
2017-02-27T02:19:31.600Z,927.66
2017-02-27T02:19:46.153Z,927.65
2017-02-27T02:20:00.730Z,927.67
2017-02-27T02:20:15.286Z,927.67
2017-02-27T02:20:29.880Z,927.7
2017-02-27T02:20:44.449Z,927.67
2017-02-27T02:20:59.027Z,927.69
2017-02-27T02:21:13.776Z,927.64
2017-02-27T02:21:28.360Z,927.65
2017-02-27T02:21:42.967Z,927.67
2017-02-27T02:21:57.566Z,927.65
2017-02-27T02:22:12.102Z,927.65
2017-02-27T02:22:26.697Z,927.66
2017-02-27T02:22:41.222Z,927.67
2017-02-27T02:22:55.778Z,927.64
2017-02-27T02:23:10.341Z,927.63
2017-02-27T02:23:24.932Z,927.64
2017-02-27T02:23:39.519Z,927.62
2017-02-27T02:23:54.078Z,927.63
2017-02-27T02:24:08.701Z,927.61
2017-02-27T02:24:23.302Z,927.61
2017-02-27T02:24:37.915Z,927.65
2017-02-27T02:24:52.545Z,927.63
2017-02-27T02:25:07.129Z,927.61
2017-02-27T02:25:21.678Z,927.63
2017-02-27T02:25:36.269Z,927.6
2017-02-27T02:25:50.848Z,927.62
2017-02-27T02:26:05.379Z,927.6
2017-02-27T02:26:19.922Z,927.63
2017-02-27T02:26:34.475Z,927.61
2017-02-27T02:26:48.962Z,927.63
2017-02-27T02:27:03.462Z,927.59
2017-02-27T02:27:17.971Z,927.63
2017-02-27T02:27:32.742Z,927.65
2017-02-27T02:27:47.364Z,927.66
2017-02-27T02:28:01.945Z,927.59
2017-02-27T02:28:16.494Z,927.6
2017-02-27T02:28:31.071Z,927.59
2017-02-27T02:28:45.665Z,927.57
2017-02-27T02:29:00.214Z,927.6
2017-02-27T02:29:14.801Z,927.58
2017-02-27T02:29:29.339Z,927.56
2017-02-27T02:29:43.912Z,927.56
2017-02-27T02:29:58.452Z,927.57
2017-02-27T02:30:13.032Z,927.57
2017-02-27T02:30:27.552Z,927.61
2017-02-27T02:30:42.153Z,927.55
2017-02-27T02:30:56.696Z,927.58
2017-02-27T02:31:11.295Z,927.58
2017-02-27T02:31:25.853Z,927.55
2017-02-27T02:31:40.458Z,927.55
2017-02-27T02:31:55.039Z,927.54
2017-02-27T02:32:09.601Z,927.53
2017-02-27T02:32:24.187Z,927.53
2017-02-27T02:32:38.801Z,927.51
2017-02-27T02:32:53.359Z,927.5
2017-02-27T02:33:07.887Z,927.52
2017-02-27T02:33:22.511Z,927.54
2017-02-27T02:33:37.094Z,927.57
2017-02-27T02:33:51.671Z,927.47
2017-02-27T02:34:06.303Z,927.51
2017-02-27T02:34:20.848Z,927.49
2017-02-27T02:34:35.468Z,927.49
2017-02-27T02:34:50.025Z,927.5
2017-02-27T02:35:04.606Z,927.51
2017-02-27T02:35:19.183Z,927.47
2017-02-27T02:35:33.763Z,927.47
2017-02-27T02:35:48.339Z,927.49
2017-02-27T02:36:02.882Z,927.47
2017-02-27T02:36:17.670Z,927.48
2017-02-27T02:36:32.178Z,927.47
2017-02-27T02:36:46.739Z,927.45
2017-02-27T02:37:01.312Z,927.48
2017-02-27T02:37:15.859Z,927.5
2017-02-27T02:37:30.441Z,927.45
2017-02-27T02:37:45.031Z,927.47
2017-02-27T02:37:59.614Z,927.43
2017-02-27T02:38:14.150Z,927.43
2017-02-27T02:38:28.776Z,927.46
2017-02-27T02:38:43.403Z,927.47
2017-02-27T02:38:58.021Z,927.43
2017-02-27T02:39:12.598Z,927.45
2017-02-27T02:39:27.127Z,927.43
2017-02-27T02:39:41.730Z,927.41
2017-02-27T02:39:56.335Z,927.43
2017-02-27T02:40:10.909Z,927.43
2017-02-27T02:40:25.449Z,927.44
2017-02-27T02:40:40.052Z,927.43
2017-02-27T02:40:54.615Z,927.43
2017-02-27T02:41:09.173Z,927.4
2017-02-27T02:41:23.773Z,927.4
2017-02-27T02:41:38.365Z,927.39
2017-02-27T02:41:52.917Z,927.43
2017-02-27T02:42:07.478Z,927.4
2017-02-27T02:42:22.004Z,927.43
2017-02-27T02:42:36.571Z,927.39
2017-02-27T02:42:51.183Z,927.4
2017-02-27T02:43:05.784Z,927.41
2017-02-27T02:43:20.404Z,927.36
2017-02-27T02:43:34.972Z,927.37
2017-02-27T02:43:49.580Z,927.35
2017-02-27T02:44:04.176Z,927.36
2017-02-27T02:44:18.791Z,927.39
2017-02-27T02:44:33.339Z,927.39
2017-02-27T02:44:47.880Z,927.37
2017-02-27T02:45:02.406Z,927.34
2017-02-27T02:45:16.949Z,927.36
2017-02-27T02:45:31.515Z,927.36
2017-02-27T02:45:46.065Z,927.34
2017-02-27T02:46:00.646Z,927.36
2017-02-27T02:46:15.209Z,927.3
2017-02-27T02:46:29.874Z,927.36
2017-02-27T02:46:44.503Z,927.37
2017-02-27T02:46:59.089Z,927.34
2017-02-27T02:47:13.657Z,927.35
2017-02-27T02:47:28.237Z,927.34
2017-02-27T02:47:42.784Z,927.32
2017-02-27T02:47:57.349Z,927.34
2017-02-27T02:48:11.952Z,927.3
2017-02-27T02:48:26.528Z,927.32
2017-02-27T02:48:41.118Z,927.34
2017-02-27T02:48:55.699Z,927.34
2017-02-27T02:49:10.291Z,927.33
2017-02-27T02:49:24.874Z,927.33
2017-02-27T02:49:39.475Z,927.34
2017-02-27T02:49:54.055Z,927.34
2017-02-27T02:50:08.603Z,927.33
2017-02-27T02:50:23.813Z,927.35
2017-02-27T02:50:38.433Z,927.32
2017-02-27T02:50:53.018Z,927.35
2017-02-27T02:51:07.607Z,927.33
2017-02-27T02:51:22.356Z,927.32
2017-02-27T02:51:36.950Z,927.35
2017-02-27T02:51:51.550Z,927.32
2017-02-27T02:52:06.090Z,927.33
2017-02-27T02:52:20.595Z,927.31
2017-02-27T02:52:35.172Z,927.32
2017-02-27T02:52:49.724Z,927.31
2017-02-27T02:53:04.257Z,927.31
2017-02-27T02:53:18.862Z,927.3
2017-02-27T02:53:33.405Z,927.28
2017-02-27T02:53:47.950Z,927.27
2017-02-27T02:54:02.542Z,927.26
2017-02-27T02:54:17.140Z,927.27
2017-02-27T02:54:31.717Z,927.28
2017-02-27T02:54:46.307Z,927.26
2017-02-27T02:55:00.873Z,927.24
2017-02-27T02:55:15.454Z,927.28
2017-02-27T02:55:30.082Z,927.25
2017-02-27T02:55:44.615Z,927.25
2017-02-27T02:55:59.093Z,927.24
2017-02-27T02:56:13.659Z,927.25
2017-02-27T02:56:28.253Z,927.21
2017-02-27T02:56:42.887Z,927.25
2017-02-27T02:56:57.451Z,927.24
2017-02-27T02:57:11.980Z,927.22
2017-02-27T02:57:26.598Z,927.25
2017-02-27T02:57:41.200Z,927.21
2017-02-27T02:57:55.838Z,927.21
2017-02-27T02:58:10.444Z,927.22
2017-02-27T02:58:25.058Z,927.2
2017-02-27T02:58:39.640Z,927.21
2017-02-27T02:58:54.212Z,927.19
2017-02-27T02:59:08.791Z,927.21
2017-02-27T02:59:23.314Z,927.16
2017-02-27T02:59:37.856Z,927.18
2017-02-27T02:59:52.440Z,927.18
2017-02-27T03:00:07.051Z,927.17
2017-02-27T03:00:21.606Z,927.17
2017-02-27T03:00:36.198Z,927.12
2017-02-27T03:00:50.779Z,927.16
2017-02-27T03:01:05.332Z,927.13
2017-02-27T03:01:19.933Z,927.16
2017-02-27T03:01:34.479Z,927.11
2017-02-27T03:01:49.003Z,927.11
2017-02-27T03:02:03.600Z,927.1
2017-02-27T03:02:18.246Z,927.11
2017-02-27T03:02:32.862Z,927.08
2017-02-27T03:02:47.462Z,927.08
2017-02-27T03:03:02.022Z,927.08
2017-02-27T03:03:16.635Z,927.08
2017-02-27T03:03:31.218Z,927.07
2017-02-27T03:03:45.833Z,927.04
2017-02-27T03:04:00.405Z,927.04
2017-02-27T03:04:14.927Z,927.03
2017-02-27T03:04:29.460Z,927.03
2017-02-27T03:04:43.993Z,927.03
2017-02-27T03:04:58.632Z,927.01
2017-02-27T03:05:13.242Z,927.02
2017-02-27T03:05:27.847Z,927.03
2017-02-27T03:05:42.421Z,927
2017-02-27T03:05:56.990Z,927.03
2017-02-27T03:06:11.597Z,927.02
2017-02-27T03:06:26.244Z,927.01
2017-02-27T03:06:41.069Z,927.01
2017-02-27T03:06:55.596Z,927.02
2017-02-27T03:07:10.188Z,927.01
2017-02-27T03:07:24.738Z,927.03
2017-02-27T03:07:39.268Z,927.04
2017-02-27T03:07:53.848Z,927.03
2017-02-27T03:08:08.430Z,927.03
2017-02-27T03:08:23.028Z,927
2017-02-27T03:08:37.549Z,927
2017-02-27T03:08:52.075Z,927.04
2017-02-27T03:09:06.883Z,927
2017-02-27T03:09:21.411Z,926.98
2017-02-27T03:09:36.012Z,926.98
2017-02-27T03:09:50.550Z,927
2017-02-27T03:10:05.097Z,927.02
2017-02-27T03:10:19.710Z,927
2017-02-27T03:10:34.303Z,926.99
2017-02-27T03:10:48.826Z,926.99
2017-02-27T03:11:03.456Z,926.94
2017-02-27T03:11:18.053Z,927.01
2017-02-27T03:11:32.563Z,926.98
2017-02-27T03:11:47.151Z,927
2017-02-27T03:12:01.763Z,926.98
2017-02-27T03:12:16.321Z,926.97
2017-02-27T03:12:30.916Z,927.02
2017-02-27T03:12:45.526Z,926.98
2017-02-27T03:13:00.113Z,927.01
2017-02-27T03:13:14.708Z,926.97
2017-02-27T03:13:29.247Z,926.98
2017-02-27T03:13:43.802Z,926.96
2017-02-27T03:13:58.374Z,926.99
2017-02-27T03:14:12.905Z,926.99
2017-02-27T03:14:27.536Z,926.98
2017-02-27T03:14:42.081Z,926.95
2017-02-27T03:14:56.598Z,926.98
2017-02-27T03:15:11.130Z,926.98
2017-02-27T03:15:25.752Z,926.94
2017-02-27T03:15:40.397Z,926.95
2017-02-27T03:15:54.963Z,926.95
2017-02-27T03:16:09.557Z,926.93
2017-02-27T03:16:24.103Z,926.95
2017-02-27T03:16:38.661Z,926.93
2017-02-27T03:16:53.221Z,926.95
2017-02-27T03:17:07.818Z,926.93
2017-02-27T03:17:22.373Z,926.92
2017-02-27T03:17:36.950Z,926.94
2017-02-27T03:17:51.561Z,926.91
2017-02-27T03:18:06.101Z,926.89
2017-02-27T03:18:20.634Z,926.91
2017-02-27T03:18:35.234Z,926.89
2017-02-27T03:18:49.751Z,926.9
2017-02-27T03:19:04.339Z,926.89
2017-02-27T03:19:18.943Z,926.9
2017-02-27T03:19:33.511Z,926.88
2017-02-27T03:19:48.120Z,926.88
2017-02-27T03:20:02.778Z,926.87
2017-02-27T03:20:17.350Z,926.9
2017-02-27T03:20:31.933Z,926.87